createdAt,value
2018-07-21T00:02:27.220Z,75.53
2018-07-21T00:04:54.941Z,75.12
2018-07-21T00:07:22.729Z,74.90
2018-07-21T00:09:50.480Z,75.80
2018-07-21T00:12:18.151Z,75.78
2018-07-21T00:14:45.938Z,75.91
2018-07-21T00:17:13.699Z,76.59
2018-07-21T00:19:41.476Z,77.36
2018-07-21T00:22:09.221Z,76.86
2018-07-21T00:24:36.933Z,76.83
2018-07-21T00:27:04.766Z,77.52
2018-07-21T00:29:32.493Z,76.48
2018-07-21T00:32:00.201Z,76.19
2018-07-21T00:34:27.877Z,76.90
2018-07-21T00:36:55.636Z,76.44
2018-07-21T00:39:23.341Z,75.95
2018-07-21T00:41:51.125Z,76.60
2018-07-21T00:44:18.892Z,76.51
2018-07-21T00:46:46.625Z,76.53
2018-07-21T00:49:14.331Z,76.30
2018-07-21T00:51:42.078Z,76.14
2018-07-21T00:54:09.828Z,76.52
2018-07-21T00:56:37.592Z,76.50
2018-07-21T00:59:08.045Z,76.53
2018-07-21T01:01:35.780Z,76.90
2018-07-21T01:04:03.541Z,76.66
2018-07-21T01:06:31.250Z,76.31
2018-07-21T01:08:58.941Z,75.29
2018-07-21T01:11:26.725Z,76.04
2018-07-21T01:13:54.420Z,76.95
2018-07-21T01:16:23.078Z,76.82
2018-07-21T01:18:50.841Z,76.67
2018-07-21T01:21:18.598Z,76.82
2018-07-21T01:23:46.327Z,77.32
2018-07-21T01:26:14.034Z,77.40
2018-07-21T01:28:41.732Z,78.38
2018-07-21T01:31:09.482Z,78.23
2018-07-21T01:33:37.232Z,77.52
2018-07-21T01:36:05.311Z,75.97
2018-07-21T01:38:33.116Z,76.49
2018-07-21T01:41:00.927Z,77.27
2018-07-21T01:43:28.697Z,78.32
2018-07-21T01:45:56.422Z,78.84
2018-07-21T01:48:24.173Z,78.92
2018-07-21T01:50:51.874Z,79.28
2018-07-21T01:53:19.682Z,78.38
2018-07-21T01:55:47.411Z,78.96
2018-07-21T01:58:15.227Z,79.25
2018-07-21T02:00:43.033Z,79.39
2018-07-21T02:03:10.747Z,79.09
2018-07-21T02:05:38.468Z,79.75
2018-07-21T02:08:06.247Z,78.75
2018-07-21T02:10:33.962Z,78.62
2018-07-21T02:13:01.728Z,78.67
2018-07-21T02:15:29.635Z,78.14
2018-07-21T02:17:57.432Z,78.50
2018-07-21T02:20:25.202Z,78.41
2018-07-21T02:22:52.917Z,77.86
2018-07-21T02:25:20.637Z,78.20
2018-07-21T02:27:48.337Z,78.63
2018-07-21T02:30:16.139Z,78.24
2018-07-21T02:32:43.918Z,78.18
2018-07-21T02:35:11.607Z,78.18
2018-07-21T02:37:39.354Z,78.28
2018-07-21T02:40:07.130Z,78.08
2018-07-21T02:42:35.007Z,78.40
2018-07-21T02:45:02.775Z,78.14
2018-07-21T02:47:30.482Z,78.29
2018-07-21T02:49:58.250Z,78.77
2018-07-21T02:52:25.949Z,77.93
2018-07-21T02:54:53.648Z,77.77
2018-07-21T02:57:21.404Z,77.81
2018-07-21T02:59:49.122Z,77.06
2018-07-21T03:02:17.248Z,77.67
2018-07-21T03:04:44.993Z,78.07
2018-07-21T03:07:12.780Z,77.88
2018-07-21T03:09:40.535Z,77.18
2018-07-21T03:12:08.464Z,76.96
2018-07-21T03:14:36.176Z,77.56
2018-07-21T03:17:03.949Z,77.46
2018-07-21T03:19:31.712Z,77.20
2018-07-21T03:21:59.468Z,77.19
2018-07-21T03:24:27.154Z,76.65
2018-07-21T03:26:54.968Z,76.91
2018-07-21T03:29:22.870Z,76.61
2018-07-21T03:31:50.603Z,76.21
2018-07-21T03:34:18.344Z,76.07
2018-07-21T03:36:46.048Z,76.22
2018-07-21T03:39:13.759Z,75.91
2018-07-21T03:41:41.511Z,75.52
2018-07-21T03:44:09.211Z,75.01
2018-07-21T03:46:36.929Z,74.87
2018-07-21T03:49:04.683Z,73.88
2018-07-21T03:51:32.625Z,73.26
2018-07-21T03:54:00.323Z,72.72
2018-07-21T03:56:28.053Z,71.26
2018-07-21T03:58:55.736Z,70.09
2018-07-21T04:01:23.459Z,69.32
2018-07-21T04:03:51.219Z,68.54
2018-07-21T04:06:19.107Z,66.53
2018-07-21T04:08:46.841Z,66.04
2018-07-21T04:11:14.687Z,65.41
2018-07-21T04:13:42.385Z,64.29
2018-07-21T04:16:10.116Z,63.50
2018-07-21T04:18:37.873Z,62.65
2018-07-21T04:21:05.632Z,61.94
2018-07-21T04:23:33.427Z,61.51
2018-07-21T04:26:01.133Z,60.94
2018-07-21T04:28:28.768Z,60.25
2018-07-21T04:30:56.521Z,58.87
2018-07-21T04:33:24.328Z,58.25
2018-07-21T04:35:52.049Z,57.69
2018-07-21T04:38:19.747Z,56.43
2018-07-21T04:40:47.555Z,55.11
2018-07-21T04:43:15.423Z,54.54
2018-07-21T04:45:43.182Z,54.64
2018-07-21T04:48:11.002Z,53.03
2018-07-21T04:50:38.706Z,53.33
2018-07-21T04:53:06.903Z,51.68
2018-07-21T04:55:34.646Z,51.66
2018-07-21T04:58:02.388Z,49.51
2018-07-21T05:00:30.147Z,48.76
2018-07-21T05:02:57.967Z,48.56
2018-07-21T05:05:25.684Z,49.12
2018-07-21T05:07:53.417Z,48.63
2018-07-21T05:10:21.252Z,48.71
2018-07-21T05:12:49.901Z,48.68
2018-07-21T05:15:17.643Z,48.97
2018-07-21T05:17:45.505Z,49.90
2018-07-21T05:20:13.244Z,48.70
2018-07-21T05:22:41.021Z,48.17
2018-07-21T05:25:08.768Z,48.45
2018-07-21T05:27:36.535Z,47.82
2018-07-21T05:30:05.251Z,47.34
2018-07-21T05:32:33.898Z,46.76
2018-07-21T05:35:01.602Z,46.23
2018-07-21T05:37:29.406Z,45.86
2018-07-21T05:39:57.156Z,45.80
2018-07-21T05:42:24.989Z,45.11
2018-07-21T05:44:52.724Z,45.70
2018-07-21T05:47:20.477Z,44.66
2018-07-21T05:49:48.268Z,42.99
2018-07-21T05:52:16.022Z,42.81
2018-07-21T05:54:43.839Z,42.29
2018-07-21T05:57:11.511Z,42.53
2018-07-21T05:59:39.213Z,42.04
2018-07-21T06:02:07.358Z,41.90
2018-07-21T06:04:35.044Z,42.33
2018-07-21T06:07:02.769Z,42.79
2018-07-21T06:09:30.542Z,42.38
2018-07-21T06:11:58.276Z,42.00
2018-07-21T06:14:26.022Z,40.80
2018-07-21T06:16:53.766Z,41.14
2018-07-21T06:19:21.481Z,40.62
2018-07-21T06:21:49.265Z,41.32
2018-07-21T06:24:16.984Z,41.05
2018-07-21T06:26:44.794Z,40.61
2018-07-21T06:29:12.624Z,41.19
2018-07-21T06:31:40.416Z,40.86
2018-07-21T06:34:08.445Z,40.79
2018-07-21T06:36:36.446Z,40.81
2018-07-21T06:39:07.252Z,39.37
2018-07-21T06:41:34.965Z,39.43
2018-07-21T06:44:02.665Z,39.21
2018-07-21T06:46:30.297Z,39.15
2018-07-21T06:48:58.006Z,39.47
2018-07-21T06:51:25.690Z,39.83
2018-07-21T06:53:53.661Z,38.78
2018-07-21T06:56:21.407Z,39.33
2018-07-21T06:58:49.278Z,39.57
2018-07-21T07:01:17.198Z,38.61
2018-07-21T07:03:44.900Z,40.46
2018-07-21T07:06:12.594Z,41.51
2018-07-21T07:08:40.299Z,40.42
2018-07-21T07:11:08.809Z,43.19
2018-07-21T07:13:36.735Z,43.92
2018-07-21T07:16:04.575Z,44.17
2018-07-21T07:18:32.536Z,44.66
2018-07-21T07:21:00.332Z,44.83
2018-07-21T07:23:28.113Z,45.56
2018-07-21T07:25:55.868Z,45.53
2018-07-21T07:28:23.649Z,46.12
2018-07-21T07:30:51.462Z,45.41
2018-07-21T07:33:19.189Z,47.27
2018-07-21T07:35:46.954Z,45.83
2018-07-21T07:38:14.693Z,45.15
2018-07-21T07:40:42.483Z,45.14
2018-07-21T07:43:10.339Z,46.11
2018-07-21T07:45:38.132Z,46.59
2018-07-21T07:48:05.902Z,46.36
2018-07-21T07:50:33.685Z,45.58
2018-07-21T07:53:01.442Z,45.94
2018-07-21T07:55:32.861Z,47.09
2018-07-21T07:58:02.204Z,47.33
2018-07-21T08:00:30.177Z,47.72
2018-07-21T08:02:58.580Z,47.91
2018-07-21T08:05:26.508Z,48.08
2018-07-21T08:07:54.221Z,46.88
2018-07-21T08:10:22.157Z,47.86
2018-07-21T08:12:50.801Z,44.31
2018-07-21T08:15:18.996Z,43.53
2018-07-21T08:17:46.739Z,43.22
2018-07-21T08:20:14.605Z,43.85
2018-07-21T08:22:42.427Z,42.09
2018-07-21T08:25:10.175Z,40.74
2018-07-21T08:27:37.995Z,40.35
2018-07-21T08:30:07.183Z,41.22
2018-07-21T08:32:34.982Z,40.77
2018-07-21T08:35:02.806Z,40.26
2018-07-21T08:37:30.566Z,39.39
2018-07-21T08:39:58.401Z,39.27
2018-07-21T08:42:26.256Z,38.37
2018-07-21T08:44:54.112Z,39.27
2018-07-21T08:47:21.927Z,38.61
2018-07-21T08:49:49.791Z,39.45
2018-07-21T08:52:17.495Z,37.13
2018-07-21T08:54:45.268Z,38.13
2018-07-21T08:57:13.078Z,38.17
2018-07-21T08:59:41.875Z,37.89
2018-07-21T09:02:10.036Z,36.49
2018-07-21T09:04:38.253Z,35.82
2018-07-21T09:07:06.108Z,36.87
2018-07-21T09:09:33.961Z,35.22
2018-07-21T09:12:02.146Z,36.06
2018-07-21T09:17:10.626Z,35.21
2018-07-21T09:19:38.467Z,34.65
2018-07-21T09:22:06.292Z,34.89
2018-07-21T09:24:34.121Z,36.26
2018-07-21T09:27:01.875Z,36.50
2018-07-21T09:29:29.641Z,36.90
2018-07-21T09:31:57.416Z,35.11
2018-07-21T09:34:25.121Z,34.41
2018-07-21T09:36:52.845Z,33.83
2018-07-21T09:39:20.621Z,32.35
2018-07-21T09:41:48.376Z,31.20
2018-07-21T09:44:16.177Z,32.29
2018-07-21T09:46:43.995Z,32.34
2018-07-21T09:49:11.800Z,33.73
2018-07-21T09:51:39.554Z,32.50
2018-07-21T09:54:07.528Z,31.55
2018-07-21T09:56:35.351Z,29.65
2018-07-21T09:59:03.297Z,31.36
2018-07-21T10:01:31.042Z,30.38
2018-07-21T10:03:58.840Z,31.74
2018-07-21T10:06:26.736Z,30.70
2018-07-21T10:08:54.563Z,31.16
2018-07-21T10:11:22.277Z,31.19
2018-07-21T10:13:50.090Z,31.78
2018-07-21T10:16:17.849Z,31.66
2018-07-21T10:18:45.578Z,32.36
2018-07-21T10:21:13.289Z,33.82
2018-07-21T10:23:41.662Z,33.17
2018-07-21T10:26:15.062Z,32.64
2018-07-21T10:28:48.205Z,32.26
2018-07-21T10:31:15.987Z,32.45
2018-07-21T10:33:43.755Z,33.36
2018-07-21T10:36:11.470Z,33.65
2018-07-21T10:38:39.178Z,32.25
2018-07-21T10:41:06.931Z,33.32
2018-07-21T10:43:34.666Z,33.28
2018-07-21T10:46:02.404Z,34.30
2018-07-21T10:48:30.166Z,33.80
2018-07-21T10:50:57.971Z,33.34
2018-07-21T10:53:25.787Z,33.79
2018-07-21T10:55:53.519Z,34.15
2018-07-21T10:58:21.453Z,34.04
2018-07-21T11:00:49.981Z,33.28
2018-07-21T11:03:17.732Z,33.04
2018-07-21T11:05:45.503Z,32.55
2018-07-21T11:08:13.821Z,33.07
2018-07-21T11:10:41.562Z,35.12
2018-07-21T11:13:09.379Z,34.47
2018-07-21T11:15:37.369Z,35.15
2018-07-21T11:18:05.158Z,35.70
2018-07-21T11:20:32.962Z,33.72
2018-07-21T11:23:00.697Z,33.89
2018-07-21T11:25:28.507Z,33.71
2018-07-21T11:27:56.249Z,33.52
2018-07-21T11:30:24.068Z,33.78
2018-07-21T11:32:51.844Z,34.11
2018-07-21T11:35:19.745Z,34.96
2018-07-21T11:37:47.428Z,35.48
2018-07-21T11:40:15.191Z,38.10
2018-07-21T11:42:42.889Z,35.51
2018-07-21T11:45:10.574Z,35.38
2018-07-21T11:47:38.285Z,36.39
2018-07-21T11:50:06.037Z,36.76
2018-07-21T11:52:33.765Z,36.90
2018-07-21T11:55:01.489Z,36.15
2018-07-21T11:57:29.225Z,35.77
2018-07-21T11:59:56.904Z,36.60
2018-07-21T12:02:24.565Z,36.60
2018-07-21T12:04:52.345Z,37.29
2018-07-21T12:07:20.039Z,37.82
2018-07-21T12:09:47.779Z,38.52
2018-07-21T12:12:15.493Z,38.94
2018-07-21T12:14:43.162Z,39.73
2018-07-21T12:17:10.983Z,39.49
2018-07-21T12:19:38.649Z,40.71
2018-07-21T12:22:06.422Z,40.94
2018-07-21T12:24:34.158Z,41.72
2018-07-21T12:27:01.818Z,41.56
2018-07-21T12:29:29.500Z,41.55
2018-07-21T12:31:57.350Z,39.74
2018-07-21T12:34:25.072Z,40.38
2018-07-21T12:36:52.779Z,39.43
2018-07-21T12:39:20.496Z,39.74
2018-07-21T12:41:48.257Z,39.62
2018-07-21T12:44:16.034Z,39.75
2018-07-21T12:46:43.817Z,39.03
2018-07-21T12:49:11.507Z,38.82
2018-07-21T12:51:39.291Z,39.11
2018-07-21T12:54:07.102Z,38.27
2018-07-21T12:56:34.843Z,38.46
2018-07-21T12:59:02.561Z,38.53
2018-07-21T13:01:30.374Z,36.13
2018-07-21T13:03:58.165Z,38.14
2018-07-21T13:06:25.872Z,38.21
2018-07-21T13:08:54.497Z,40.03
2018-07-21T13:11:22.210Z,39.48
2018-07-21T13:13:49.978Z,40.35
2018-07-21T13:16:17.790Z,39.93
2018-07-21T13:18:45.565Z,40.30
2018-07-21T13:21:13.348Z,38.80
2018-07-21T13:23:41.054Z,39.09
2018-07-21T13:26:08.868Z,40.54
2018-07-21T13:28:36.552Z,39.48
2018-07-21T13:31:04.245Z,39.08
2018-07-21T13:33:31.977Z,38.61
2018-07-21T13:35:59.711Z,39.11
2018-07-21T13:38:27.465Z,39.21
2018-07-21T13:40:55.448Z,40.80
2018-07-21T13:43:23.534Z,39.92
2018-07-21T13:45:51.275Z,41.01
2018-07-21T13:48:19.014Z,41.42
2018-07-21T13:50:46.890Z,40.25
2018-07-21T13:53:14.702Z,39.93
2018-07-21T13:55:42.425Z,39.04
2018-07-21T13:58:10.171Z,38.02
2018-07-21T14:00:37.907Z,38.43
2018-07-21T14:03:05.778Z,39.45
2018-07-21T14:05:33.605Z,39.06
2018-07-21T14:08:01.356Z,40.85
2018-07-21T14:10:29.164Z,41.58
2018-07-21T14:12:56.970Z,41.69
2018-07-21T14:15:24.761Z,40.46
2018-07-21T14:17:52.512Z,40.81
2018-07-21T14:20:20.307Z,40.30
2018-07-21T14:22:48.213Z,41.65
2018-07-21T14:25:16.009Z,41.29
2018-07-21T14:27:43.693Z,42.57
2018-07-21T14:30:11.575Z,41.39
2018-07-21T14:32:39.355Z,41.92
2018-07-21T14:35:07.822Z,42.19
2018-07-21T14:37:35.643Z,42.52
2018-07-21T14:40:03.467Z,44.74
2018-07-21T14:42:31.414Z,45.10
2018-07-21T14:44:59.177Z,45.31
2018-07-21T14:47:26.951Z,45.56
2018-07-21T14:49:54.655Z,46.14
2018-07-21T14:52:22.436Z,46.84
2018-07-21T14:54:50.313Z,46.75
2018-07-21T14:57:18.026Z,45.77
2018-07-21T14:59:45.752Z,46.12
2018-07-21T15:02:18.177Z,47.87
2018-07-21T15:04:45.913Z,48.12
2018-07-21T15:07:13.611Z,49.27
2018-07-21T15:09:41.456Z,49.61
2018-07-21T15:12:09.304Z,49.39
2018-07-21T15:14:37.160Z,48.80
2018-07-21T15:17:05.171Z,48.41
2018-07-21T15:19:32.909Z,48.33
2018-07-21T15:22:00.714Z,48.92
2018-07-21T15:24:28.483Z,49.07
2018-07-21T15:26:56.223Z,48.75
2018-07-21T15:29:24.469Z,48.64
2018-07-21T15:31:52.276Z,48.55
2018-07-21T15:34:20.169Z,49.72
2018-07-21T15:36:47.908Z,50.76
2018-07-21T15:39:15.754Z,50.07
2018-07-21T15:41:43.446Z,51.22
2018-07-21T15:44:11.208Z,52.30
2018-07-21T15:46:38.972Z,52.04
2018-07-21T15:49:06.829Z,51.86
2018-07-21T15:51:34.497Z,52.08
2018-07-21T15:54:02.265Z,52.37
2018-07-21T15:56:30.079Z,52.40
2018-07-21T15:58:57.863Z,52.64
2018-07-21T16:01:25.805Z,52.59
2018-07-21T16:03:53.629Z,53.56
2018-07-21T16:06:21.379Z,53.58
2018-07-21T16:08:49.097Z,54.64
2018-07-21T16:11:16.901Z,53.65
2018-07-21T16:13:44.615Z,53.70
2018-07-21T16:16:12.384Z,53.55
2018-07-21T16:18:40.707Z,52.70
2018-07-21T16:21:08.438Z,53.55
2018-07-21T16:23:36.120Z,53.73
2018-07-21T16:26:03.821Z,52.44
2018-07-21T16:28:31.560Z,52.78
2018-07-21T16:30:59.306Z,53.39
2018-07-21T16:33:27.033Z,52.66
2018-07-21T16:35:54.787Z,53.33
2018-07-21T16:38:22.554Z,53.26
2018-07-21T16:40:50.204Z,52.07
2018-07-21T16:43:18.001Z,51.40
2018-07-21T16:45:45.779Z,51.98
2018-07-21T16:48:13.533Z,51.49
2018-07-21T16:50:41.216Z,51.48
2018-07-21T16:53:08.952Z,50.42
2018-07-21T16:55:36.658Z,51.01
2018-07-21T16:58:04.438Z,49.89
2018-07-21T17:00:32.168Z,50.45
2018-07-21T17:03:00.015Z,49.96
2018-07-21T17:05:27.707Z,50.64
2018-07-21T17:07:55.451Z,50.59
2018-07-21T17:10:23.239Z,51.77
2018-07-21T17:12:51.072Z,51.33
2018-07-21T17:15:18.773Z,51.49
2018-07-21T17:17:46.614Z,52.33
2018-07-21T17:20:14.664Z,51.71
2018-07-21T17:22:42.346Z,51.61
2018-07-21T17:25:10.060Z,52.27
2018-07-21T17:27:37.820Z,52.52
2018-07-21T17:30:05.889Z,52.01
2018-07-21T17:32:33.578Z,52.30
2018-07-21T17:35:01.285Z,52.23
2018-07-21T17:37:29.039Z,52.33
2018-07-21T17:39:57.097Z,52.82
2018-07-21T17:42:24.845Z,53.51
2018-07-21T17:44:52.608Z,53.62
2018-07-21T17:47:20.251Z,53.51
2018-07-21T17:49:47.956Z,53.97
2018-07-21T17:52:15.755Z,54.11
2018-07-21T17:54:43.489Z,53.94
2018-07-21T17:57:11.172Z,54.31
2018-07-21T17:59:38.970Z,54.74
2018-07-21T18:02:06.754Z,55.04
2018-07-21T18:04:35.061Z,56.17
2018-07-21T18:07:02.928Z,56.56
2018-07-21T18:09:30.651Z,56.61
2018-07-21T18:11:58.798Z,56.84
2018-07-21T18:14:26.556Z,56.90
2018-07-21T18:16:54.260Z,57.00
2018-07-21T18:19:21.976Z,58.17
2018-07-21T18:21:50.031Z,58.03
2018-07-21T18:24:18.104Z,57.64
2018-07-21T18:26:46.308Z,58.27
2018-07-21T18:29:14.072Z,57.58
2018-07-21T18:31:42.468Z,58.13
2018-07-21T18:34:10.144Z,58.71
2018-07-21T18:36:37.861Z,58.73
2018-07-21T18:39:08.733Z,58.89
2018-07-21T18:41:36.480Z,58.48
2018-07-21T18:44:04.592Z,58.57
2018-07-21T18:46:32.376Z,58.81
2018-07-21T18:49:00.144Z,59.29
2018-07-21T18:51:27.956Z,60.54
2018-07-21T18:53:55.769Z,60.44
2018-07-21T18:56:23.494Z,61.00
2018-07-21T18:58:51.716Z,60.90
2018-07-21T19:01:19.839Z,61.31
2018-07-21T19:03:47.579Z,61.41
2018-07-21T19:06:15.351Z,61.23
2018-07-21T19:08:48.495Z,62.16
2018-07-21T19:11:17.210Z,61.62
2018-07-21T19:13:45.005Z,62.26
2018-07-21T19:16:18.361Z,61.56
2018-07-21T19:18:46.107Z,62.00
2018-07-21T19:21:20.723Z,63.09
2018-07-21T19:23:49.575Z,62.19
2018-07-21T19:26:22.959Z,62.53
2018-07-21T19:28:51.058Z,63.15
2018-07-21T19:31:18.992Z,63.77
2018-07-21T19:33:46.983Z,63.67
2018-07-21T19:36:14.637Z,64.20
2018-07-21T19:38:42.394Z,64.08
2018-07-21T19:41:15.815Z,65.08
2018-07-21T19:43:43.809Z,64.85
2018-07-21T19:46:12.062Z,64.75
2018-07-21T19:48:40.186Z,63.99
2018-07-21T19:51:08.943Z,64.97
2018-07-21T19:53:36.665Z,64.99
2018-07-21T19:56:04.862Z,64.88
2018-07-21T19:58:32.917Z,64.73
2018-07-21T20:01:00.849Z,65.74
2018-07-21T20:03:29.016Z,65.53
2018-07-21T20:05:57.128Z,65.21
2018-07-21T20:08:25.233Z,65.53
2018-07-21T20:10:52.976Z,65.73
2018-07-21T20:13:20.762Z,65.96
2018-07-21T20:15:48.595Z,65.27
2018-07-21T20:18:16.423Z,65.90
2018-07-21T20:20:44.208Z,65.99
2018-07-21T20:23:12.019Z,65.62
2018-07-21T20:25:39.745Z,65.21
2018-07-21T20:28:07.501Z,66.01
2018-07-21T20:30:35.227Z,66.29
2018-07-21T20:33:03.467Z,66.05
2018-07-21T20:35:31.215Z,66.55
2018-07-21T20:37:58.962Z,66.27
2018-07-21T20:40:26.707Z,67.07
2018-07-21T20:42:54.559Z,66.70
2018-07-21T20:45:22.525Z,67.27
2018-07-21T20:47:50.358Z,68.19
2018-07-21T20:50:18.147Z,68.02
2018-07-21T20:52:45.864Z,68.21
2018-07-21T20:55:13.612Z,68.34
2018-07-21T20:57:42.078Z,67.94
2018-07-21T21:00:09.816Z,68.65
2018-07-21T21:02:37.515Z,68.80
2018-07-21T21:05:05.384Z,68.83
2018-07-21T21:07:33.181Z,69.11
2018-07-21T21:10:00.914Z,69.68
2018-07-21T21:12:28.806Z,69.24
2018-07-21T21:14:56.557Z,69.75
2018-07-21T21:17:24.261Z,70.30
2018-07-21T21:19:52.010Z,69.86
2018-07-21T21:22:19.784Z,70.11
2018-07-21T21:24:47.623Z,69.98
2018-07-21T21:27:15.332Z,69.56
2018-07-21T21:29:43.066Z,69.93
2018-07-21T21:32:10.839Z,70.68
2018-07-21T21:34:38.594Z,70.61
2018-07-21T21:37:06.444Z,69.89
2018-07-21T21:39:34.665Z,70.29
2018-07-21T21:42:02.464Z,69.89
2018-07-21T21:44:30.367Z,70.09
2018-07-21T21:46:58.095Z,70.41
2018-07-21T21:49:25.820Z,70.76
2018-07-21T21:51:53.587Z,70.91
2018-07-21T21:54:21.315Z,71.15
2018-07-21T21:56:49.129Z,71.98
2018-07-21T21:59:17.920Z,71.98
2018-07-21T22:01:45.760Z,72.42
2018-07-21T22:04:13.576Z,72.14
2018-07-21T22:06:41.268Z,72.14
2018-07-21T22:09:10.256Z,72.06
2018-07-21T22:11:38.059Z,72.05
2018-07-21T22:14:06.470Z,72.39
2018-07-21T22:16:34.232Z,72.51
2018-07-21T22:19:02.006Z,72.02
2018-07-21T22:21:30.005Z,72.65
2018-07-21T22:23:57.764Z,72.09
2018-07-21T22:26:25.536Z,72.52
2018-07-21T22:28:53.335Z,72.50
2018-07-21T22:31:21.106Z,73.04
2018-07-21T22:33:48.865Z,72.31
2018-07-21T22:36:16.676Z,73.04
2018-07-21T22:38:44.436Z,73.03
2018-07-21T22:41:12.274Z,73.20
2018-07-21T22:43:40.074Z,73.34
2018-07-21T22:46:07.828Z,72.83
2018-07-21T22:48:35.543Z,72.84
2018-07-21T22:51:03.395Z,73.86
2018-07-21T22:53:31.199Z,73.58
2018-07-21T22:55:58.933Z,73.22
2018-07-21T22:58:26.606Z,73.62
2018-07-21T23:00:54.301Z,74.17
2018-07-21T23:03:22.029Z,74.33
2018-07-21T23:05:49.766Z,73.91
2018-07-21T23:08:17.503Z,73.85
2018-07-21T23:10:45.257Z,74.46
2018-07-21T23:13:12.953Z,74.19
2018-07-21T23:15:40.696Z,74.72
2018-07-21T23:18:08.403Z,74.42
2018-07-21T23:20:36.079Z,74.58
2018-07-21T23:23:03.766Z,74.09
2018-07-21T23:25:31.456Z,73.77
2018-07-21T23:27:59.171Z,74.04
2018-07-21T23:30:26.868Z,74.65
2018-07-21T23:32:54.575Z,75.40
2018-07-21T23:35:22.267Z,75.22
2018-07-21T23:37:49.988Z,75.42
2018-07-21T23:40:17.721Z,75.85
2018-07-21T23:42:45.548Z,76.27
2018-07-21T23:45:13.358Z,75.17
2018-07-21T23:47:41.067Z,75.46
2018-07-21T23:50:08.992Z,75.45
2018-07-21T23:52:36.678Z,75.51
2018-07-21T23:55:05.777Z,76.25
2018-07-21T23:57:33.496Z,76.35
